Time;durP1;ratioP1;P1;durP2;ratioP2;P2;SDS_P1;SDS_P2;PMS_P1;PMS_P2;Temp;Humidity;BMP_temperature;BMP_pressure;BME280_temperature;BME280_humidity;BME280_pressure;Samples;Min_cycle;Max_cycle;Signal;HPM_P1;HPM_P2
2023/08/05 00:01:02;;;;;;;7.05;2.25;;;16.30;99.90;;;;;;6160592;23;20021;-81
2023/08/05 00:03:28;;;;;;;5.80;2.47;;;16.30;99.90;;;;;;6160627;23;20341;-81
2023/08/05 00:05:53;;;;;;;5.95;2.55;;;16.30;99.90;;;;;;6160308;23;20017;-81
2023/08/05 00:08:19;;;;;;;4.43;2.28;;;16.20;99.90;;;;;;6185094;23;20017;-81
2023/08/05 00:10:45;;;;;;;5.45;2.40;;;16.30;99.90;;;;;;6160406;23;20017;-81
2023/08/05 00:13:12;;;;;;;7.05;2.78;;;16.30;99.90;;;;;;6160429;23;20071;-81
2023/08/05 00:15:38;;;;;;;7.13;3.03;;;16.20;99.90;;;;;;6160424;23;20025;-81
2023/08/05 00:18:03;;;;;;;7.22;3.20;;;16.30;99.90;;;;;;6160338;23;20009;-81
2023/08/05 00:20:29;;;;;;;6.57;3.40;;;16.20;99.90;;;;;;6187045;23;20441;-81
2023/08/05 00:22:55;;;;;;;7.13;3.30;;;16.20;99.90;;;;;;6160292;23;20031;-81
2023/08/05 00:25:21;;;;;;;6.47;3.70;;;16.20;99.90;;;;;;6160225;23;20025;-81
2023/08/05 00:27:47;;;;;;;5.38;3.33;;;16.20;99.90;;;;;;6160252;23;20040;-81
2023/08/05 00:30:13;;;;;;;6.43;3.20;;;16.20;99.90;;;;;;6160172;23;20105;-81
2023/08/05 00:32:39;;;;;;;8.55;3.63;;;16.10;99.90;;;;;;6160186;23;20021;-80
2023/08/05 00:35:06;;;;;;;6.40;3.65;;;16.10;99.90;;;;;;6160082;23;20019;-80
2023/08/05 00:37:32;;;;;;;6.97;3.80;;;16.10;99.90;;;;;;6160138;23;20441;-80
2023/08/05 00:39:59;;;;;;;11.65;3.83;;;16.10;99.90;;;;;;6160195;23;20095;-81
2023/08/05 00:42:30;;;;;;;7.13;3.65;;;16.10;99.90;;;;;;6160192;23;20453;-81
2023/08/05 00:44:56;;;;;;;7.65;3.25;;;16.10;99.90;;;;;;6160221;23;20028;-81
2023/08/05 00:47:21;;;;;;;8.55;3.83;;;16.10;99.90;;;;;;6160210;23;20021;-81
2023/08/05 00:49:50;;;;;;;9.90;4.72;;;16.00;99.90;;;;;;6186462;23;20024;-81
2023/08/05 00:52:21;;;;;;;10.15;4.47;;;16.00;99.90;;;;;;6159976;23;20021;-81
2023/08/05 00:54:48;;;;;;;8.25;4.32;;;16.00;99.90;;;;;;6160007;23;20021;-81
2023/08/05 00:57:14;;;;;;;6.88;3.97;;;16.00;99.90;;;;;;6160093;23;20096;-81
2023/08/05 00:59:45;;;;;;;8.55;4.30;;;15.90;99.90;;;;;;6159943;23;20146;-81
2023/08/05 01:02:11;;;;;;;9.23;3.83;;;15.90;99.90;;;;;;6159952;23;20453;-81
2023/08/05 01:04:37;;;;;;;7.03;3.83;;;15.90;99.90;;;;;;6186673;23;20032;-81
2023/08/05 01:07:03;;;;;;;7.97;3.80;;;15.90;99.90;;;;;;6186594;23;20025;-80
2023/08/05 01:09:30;;;;;;;7.22;3.80;;;15.90;99.90;;;;;;6159758;23;20027;-81
2023/08/05 01:11:57;;;;;;;12.00;4.05;;;15.80;99.90;;;;;;6159805;23;20021;-81
2023/08/05 01:14:22;;;;;;;5.95;3.28;;;15.80;99.90;;;;;;6159764;23;20013;-81
2023/08/05 01:16:48;;;;;;;8.10;3.75;;;15.70;99.90;;;;;;6159859;23;20021;-81
2023/08/05 01:19:20;;;;;;;7.97;3.70;;;15.80;99.90;;;;;;6159950;23;20053;-81
2023/08/05 01:22:11;;;;;;;7.60;3.75;;;15.70;99.90;;;;;;6159841;23;20024;-81
2023/08/05 01:25:04;;;;;;;10.00;3.85;;;15.70;99.90;;;;;;6186464;23;20124;-81
2023/08/05 01:27:32;;;;;;;8.65;3.38;;;15.70;99.90;;;;;;6185117;23;20025;-81
2023/08/05 01:29:58;;;;;;;6.65;3.33;;;15.60;99.90;;;;;;6159676;23;20096;-81
2023/08/05 01:32:24;;;;;;;6.50;2.97;;;15.60;99.90;;;;;;6159723;23;20052;-81
2023/08/05 01:34:51;;;;;;;5.93;3.28;;;15.50;99.90;;;;;;6186204;23;20056;-81
2023/08/05 01:37:17;;;;;;;7.30;3.05;;;15.60;99.90;;;;;;6159809;23;20090;-81
2023/08/05 01:39:42;;;;;;;5.45;3.30;;;15.60;99.90;;;;;;6159595;23;20381;-81
2023/08/05 01:42:08;;;;;;;5.03;2.83;;;15.50;99.90;;;;;;6159702;23;20097;-81
2023/08/05 01:44:34;;;;;;;7.00;3.08;;;15.60;99.90;;;;;;6159650;23;20071;-81
2023/08/05 01:46:59;;;;;;;6.95;3.22;;;15.50;99.90;;;;;;6159496;23;20028;-81
2023/08/05 01:49:25;;;;;;;7.57;2.88;;;15.50;99.90;;;;;;6159704;23;20013;-81
2023/08/05 01:51:51;;;;;;;6.97;2.90;;;15.50;99.90;;;;;;6159726;23;20345;-81
2023/08/05 01:54:16;;;;;;;6.82;2.83;;;15.50;99.90;;;;;;6159647;23;20013;-81
2023/08/05 01:56:42;;;;;;;7.03;2.97;;;15.40;99.90;;;;;;6159469;23;20021;-81
2023/08/05 01:59:08;;;;;;;6.20;3.10;;;15.40;99.90;;;;;;6159584;23;20013;-80
2023/08/05 02:01:44;;;;;;;6.15;3.08;;;15.40;99.90;;;;;;6159680;23;20087;-80
2023/08/05 02:04:11;;;;;;;5.70;3.30;;;15.40;99.90;;;;;;6161583;23;20401;-80
2023/08/05 02:06:37;;;;;;;7.95;3.15;;;15.40;99.90;;;;;;6161420;23;20071;-81
2023/08/05 02:09:03;;;;;;;7.63;3.20;;;15.40;99.90;;;;;;6187896;23;20013;-81
2023/08/05 02:11:32;;;;;;;6.80;2.88;;;15.40;99.90;;;;;;6161625;23;20024;-81
2023/08/05 02:13:58;;;;;;;7.35;3.00;;;15.40;99.90;;;;;;6161527;23;20024;-81
2023/08/05 02:16:26;;;;;;;5.38;2.92;;;15.40;99.90;;;;;;6161552;23;20101;-81
2023/08/05 02:18:53;;;;;;;5.40;2.83;;;15.30;99.90;;;;;;6161401;23;20025;-81
2023/08/05 02:21:19;;;;;;;5.93;2.75;;;15.30;99.90;;;;;;6188196;23;20009;-81
2023/08/05 02:23:44;;;;;;;6.55;2.80;;;15.30;99.90;;;;;;6161509;23;20053;-81
2023/08/05 02:26:13;;;;;;;6.60;3.20;;;15.30;99.90;;;;;;6161600;23;20437;-81
2023/08/05 02:28:38;;;;;;;5.95;2.72;;;15.20;99.90;;;;;;6161503;23;20021;-81
2023/08/05 02:31:04;;;;;;;4.18;2.55;;;15.20;99.90;;;;;;6161586;23;20017;-81
2023/08/05 02:33:29;;;;;;;6.60;2.85;;;15.20;99.90;;;;;;6187766;23;20084;-81
2023/08/05 02:35:59;;;;;;;6.82;2.95;;;15.10;99.90;;;;;;6161388;23;20021;-81
2023/08/05 02:38:24;;;;;;;7.85;3.65;;;15.10;99.90;;;;;;6161143;23;20056;-81
2023/08/05 02:40:50;;;;;;;8.05;3.33;;;15.00;99.90;;;;;;6161393;23;20017;-81
2023/08/05 02:43:15;;;;;;;4.82;2.85;;;15.00;99.90;;;;;;6187603;23;20021;-81
2023/08/05 02:45:41;;;;;;;5.47;3.05;;;15.00;99.90;;;;;;6161178;23;20017;-81
2023/08/05 02:48:07;;;;;;;9.20;3.40;;;15.00;99.90;;;;;;6161277;23;20508;-81
2023/08/05 02:50:33;;;;;;;7.57;3.22;;;15.00;99.90;;;;;;6161162;23;20021;-81
2023/08/05 02:52:58;;;;;;;7.10;3.50;;;15.00;99.90;;;;;;6161130;23;20021;-81
2023/08/05 02:55:24;;;;;;;7.57;3.30;;;14.90;99.90;;;;;;6187396;23;20311;-80
2023/08/05 02:57:50;;;;;;;6.90;3.67;;;14.90;99.90;;;;;;6161118;23;20017;-80
2023/08/05 03:00:15;;;;;;;5.35;3.15;;;14.80;99.90;;;;;;6161200;23;20088;-81
2023/08/05 03:02:41;;;;;;;7.45;3.58;;;14.80;99.90;;;;;;6161179;23;20040;-80
2023/08/05 03:05:07;;;;;;;6.13;3.80;;;14.80;99.90;;;;;;6161062;23;20083;-80
2023/08/05 03:07:32;;;;;;;6.90;3.63;;;14.80;99.90;;;;;;6160978;23;20021;-80
2023/08/05 03:09:58;;;;;;;7.03;3.70;;;14.80;99.90;;;;;;6187238;23;20049;-80
2023/08/05 03:12:24;;;;;;;7.93;4.30;;;14.80;99.90;;;;;;6160946;23;20021;-80
2023/08/05 03:14:53;;;;;;;10.55;4.05;;;14.80;99.90;;;;;;6187611;23;20017;-80
2023/08/05 03:17:18;;;;;;;7.13;4.07;;;14.80;99.90;;;;;;6161062;23;20019;-81
2023/08/05 03:19:51;;;;;;;7.22;4.30;;;14.80;99.90;;;;;;6160939;23;20021;-80
2023/08/05 03:22:16;;;;;;;11.85;5.05;;;14.80;99.90;;;;;;6160872;23;20082;-80
2023/08/05 03:24:42;;;;;;;6.10;3.85;;;14.80;99.90;;;;;;6160943;23;20165;-80
2023/08/05 03:27:07;;;;;;;9.65;4.68;;;14.80;99.90;;;;;;6160758;23;20059;-80
2023/08/05 03:29:33;;;;;;;8.70;3.88;;;14.80;99.90;;;;;;6160884;23;20027;-81
2023/08/05 03:31:59;;;;;;;12.07;3.83;;;14.80;99.90;;;;;;6160833;23;20071;-80
2023/08/05 03:34:24;;;;;;;7.25;4.30;;;14.80;99.90;;;;;;6160773;23;20473;-80
2023/08/05 03:36:52;;;;;;;7.78;3.90;;;14.80;99.90;;;;;;6160878;23;20021;-80
2023/08/05 03:39:19;;;;;;;7.28;4.40;;;14.80;99.90;;;;;;6160755;23;20048;-80
2023/08/05 03:41:45;;;;;;;6.97;3.92;;;14.80;99.90;;;;;;6160801;23;20441;-80
2023/08/05 03:44:11;;;;;;;10.52;3.85;;;14.80;99.90;;;;;;6160666;23;20021;-80
2023/08/05 03:46:37;;;;;;;7.40;3.53;;;14.80;99.90;;;;;;6187197;23;20386;-81
2023/08/05 03:49:06;;;;;;;8.85;3.40;;;14.80;99.90;;;;;;6187084;23;20072;-80
2023/08/05 03:51:32;;;;;;;6.47;3.45;;;14.80;99.90;;;;;;6160613;23;20025;-80
2023/08/05 03:53:57;;;;;;;9.05;4.00;;;14.80;99.90;;;;;;6160450;23;20024;-80
2023/08/05 03:56:26;;;;;;;7.40;3.53;;;14.70;99.90;;;;;;6160608;23;20068;-80
2023/08/05 03:58:56;;;;;;;8.20;3.85;;;14.80;99.90;;;;;;6160289;23;20448;-80
2023/08/05 04:01:22;;;;;;;8.73;3.92;;;14.80;99.90;;;;;;6159112;23;20017;-80
2023/08/05 04:03:54;;;;;;;9.80;4.43;;;14.70;99.90;;;;;;6187147;23;20021;-81
2023/08/05 04:06:20;;;;;;;9.40;4.53;;;14.70;99.90;;;;;;6186897;23;20067;-81
2023/08/05 04:08:53;;;;;;;8.07;4.22;;;14.60;99.90;;;;;;6160113;23;20021;-81
2023/08/05 04:11:20;;;;;;;10.50;4.63;;;14.70;99.90;;;;;;6160302;23;20091;-80
2023/08/05 04:13:45;;;;;;;11.60;4.88;;;14.60;99.90;;;;;;6186641;23;20025;-81
2023/08/05 04:16:11;;;;;;;10.93;4.75;;;14.60;99.90;;;;;;6160384;23;20508;-81
2023/08/05 04:18:38;;;;;;;7.72;4.32;;;14.60;99.90;;;;;;6160238;23;20021;-80
2023/08/05 04:21:04;;;;;;;9.02;4.70;;;14.60;99.90;;;;;;6185162;23;20017;-80
2023/08/05 04:23:33;;;;;;;7.80;4.47;;;14.60;99.90;;;;;;6160251;23;20460;-80
2023/08/05 04:26:03;;;;;;;8.73;5.10;;;14.60;99.90;;;;;;6159795;23;20052;-80
2023/08/05 04:28:28;;;;;;;9.43;5.25;;;14.70;99.90;;;;;;6186860;23;20029;-81
2023/08/05 04:30:54;;;;;;;8.50;4.88;;;14.60;99.90;;;;;;6160240;23;20330;-81
2023/08/05 04:33:20;;;;;;;8.77;4.50;;;14.70;99.90;;;;;;6160242;23;20023;-80
2023/08/05 04:35:49;;;;;;;9.05;5.13;;;14.70;99.90;;;;;;6186858;23;20072;-81
2023/08/05 04:38:15;;;;;;;8.93;4.45;;;14.70;99.90;;;;;;6159879;23;20013;-81
2023/08/05 04:40:42;;;;;;;7.10;4.43;;;14.70;99.90;;;;;;6160061;23;20021;-80
2023/08/05 04:43:07;;;;;;;7.18;4.32;;;14.70;99.90;;;;;;6159960;23;20024;-80
2023/08/05 04:45:34;;;;;;;9.40;4.10;;;14.70;99.90;;;;;;6186308;23;20020;-80
2023/08/05 04:48:00;;;;;;;7.25;3.78;;;14.80;99.90;;;;;;6159920;23;20021;-80
2023/08/05 04:50:26;;;;;;;7.07;3.42;;;14.80;99.90;;;;;;6160084;23;20020;-81
2023/08/05 04:52:52;;;;;;;6.72;3.42;;;14.80;99.90;;;;;;6159927;23;20099;-80
2023/08/05 04:55:17;;;;;;;7.82;3.25;;;14.90;99.90;;;;;;6159990;23;20021;-80
2023/08/05 04:57:44;;;;;;;7.35;3.33;;;14.90;99.90;;;;;;6159881;23;20014;-80
2023/08/05 05:00:10;;;;;;;8.48;3.60;;;15.00;99.90;;;;;;6186519;23;20017;-80
2023/08/05 05:02:39;;;;;;;7.07;3.33;;;15.00;99.90;;;;;;6159782;23;20048;-80
2023/08/05 05:05:05;;;;;;;7.32;3.67;;;15.00;99.90;;;;;;6159759;23;20017;-80
2023/08/05 05:07:31;;;;;;;7.13;3.20;;;15.10;99.90;;;;;;6186261;23;20049;-80
2023/08/05 05:10:00;;;;;;;6.95;3.33;;;15.10;99.90;;;;;;6159606;23;20020;-80
2023/08/05 05:12:26;;;;;;;6.05;2.67;;;15.20;99.90;;;;;;6186461;23;20100;-80
2023/08/05 05:14:52;;;;;;;7.63;3.70;;;15.20;99.90;;;;;;6159757;23;20017;-80
2023/08/05 05:17:18;;;;;;;5.30;2.72;;;15.20;99.90;;;;;;6159802;23;20021;-80
2023/08/05 05:19:44;;;;;;;5.75;2.97;;;15.30;99.90;;;;;;6159676;23;20475;-80
2023/08/05 05:22:14;;;;;;;6.32;3.00;;;15.40;99.90;;;;;;6186429;23;20013;-80
2023/08/05 05:24:40;;;;;;;6.60;2.92;;;15.50;99.90;;;;;;6159636;23;20048;-80
2023/08/05 05:27:06;;;;;;;7.82;2.97;;;15.60;99.90;;;;;;6159609;23;20024;-80
2023/08/05 05:29:31;;;;;;;7.15;3.00;;;15.60;99.90;;;;;;6159620;23;20009;-80
2023/08/05 05:31:57;;;;;;;9.40;3.42;;;15.60;99.90;;;;;;6185891;23;20009;-80
2023/08/05 05:34:23;;;;;;;5.90;2.92;;;15.70;99.90;;;;;;6160177;23;20016;-80
2023/08/05 05:36:48;;;;;;;6.32;2.40;;;15.80;99.90;;;;;;6159650;23;20024;-80
2023/08/05 05:39:14;;;;;;;5.38;2.65;;;15.80;99.90;;;;;;6159636;23;20017;-80
2023/08/05 05:41:39;;;;;;;8.00;2.85;;;15.90;99.90;;;;;;6185910;23;20017;-80
2023/08/05 05:44:05;;;;;;;8.38;2.88;;;15.90;99.90;;;;;;6186201;23;20059;-80
2023/08/05 05:46:34;;;;;;;7.40;3.25;;;16.00;99.90;;;;;;6159434;23;20425;-79
2023/08/05 05:49:00;;;;;;;5.75;2.58;;;16.00;99.90;;;;;;6186146;23;20063;-79
2023/08/05 05:51:25;;;;;;;6.47;2.63;;;16.00;99.90;;;;;;6159466;23;20009;-79
2023/08/05 05:53:51;;;;;;;5.35;2.67;;;16.00;99.90;;;;;;6159350;23;20029;-80
2023/08/05 05:56:18;;;;;;;6.18;2.53;;;16.10;99.90;;;;;;6159616;23;20100;-80
2023/08/05 05:58:43;;;;;;;6.53;2.50;;;16.00;99.90;;;;;;6159450;23;20449;-80
2023/08/05 06:01:09;;;;;;;10.52;2.72;;;16.10;99.90;;;;;;6159555;23;20013;-79
2023/08/05 06:03:35;;;;;;;6.00;2.72;;;16.20;99.90;;;;;;6159727;23;20016;-79
2023/08/05 06:06:00;;;;;;;8.52;3.00;;;16.20;99.90;;;;;;6159465;23;20013;-80
2023/08/05 06:08:27;;;;;;;6.18;2.70;;;16.10;99.90;;;;;;6159175;23;20025;-79
2023/08/05 06:10:53;;;;;;;7.72;3.00;;;16.10;99.90;;;;;;6159457;23;20017;-79
2023/08/05 06:13:20;;;;;;;4.15;2.17;;;16.10;99.90;;;;;;6186098;23;20017;-78
2023/08/05 06:15:46;;;;;;;5.93;2.58;;;16.10;99.90;;;;;;6186069;23;20088;-80
2023/08/05 06:18:12;;;;;;;7.53;2.70;;;16.10;99.90;;;;;;6158253;23;20021;-76
2023/08/05 06:20:37;;;;;;;6.75;3.00;;;16.20;99.90;;;;;;6184066;23;20009;-78
2023/08/05 06:23:06;;;;;;;6.60;2.83;;;16.40;99.90;;;;;;6159030;23;20025;-77
2023/08/05 06:25:32;;;;;;;4.20;2.65;;;16.60;99.90;;;;;;6159363;23;20349;-78
2023/08/05 06:27:58;;;;;;;7.53;3.15;;;16.60;99.90;;;;;;6158151;23;20025;-79
2023/08/05 06:30:24;;;;;;;6.18;2.47;;;16.60;99.90;;;;;;6159075;23;20024;-78
2023/08/05 06:32:50;;;;;;;6.15;2.83;;;16.70;99.90;;;;;;6159381;23;20028;-78
2023/08/05 06:35:15;;;;;;;6.28;2.65;;;16.80;99.90;;;;;;6159358;23;20021;-81
2023/08/05 06:37:41;;;;;;;5.75;2.65;;;16.80;99.90;;;;;;6159326;23;20391;-78
2023/08/05 06:40:07;;;;;;;6.35;3.08;;;16.80;99.90;;;;;;6159370;23;20009;-77
2023/08/05 06:42:33;;;;;;;6.93;2.95;;;16.60;99.90;;;;;;6159366;23;20021;-77
2023/08/05 06:45:05;;;;;;;6.00;2.60;;;16.70;99.90;;;;;;6159318;23;20341;-78
2023/08/05 06:47:31;;;;;;;9.75;2.90;;;16.80;99.90;;;;;;6185933;23;20024;-77
2023/08/05 06:49:57;;;;;;;8.70;3.30;;;16.80;99.90;;;;;;6187735;23;20017;-78
2023/08/05 06:52:23;;;;;;;8.75;3.22;;;16.70;99.90;;;;;;6161126;23;20441;-78
2023/08/05 06:54:51;;;;;;;5.32;2.38;;;16.80;99.90;;;;;;6161076;23;20017;-77
2023/08/05 06:57:20;;;;;;;5.65;2.60;;;16.80;99.90;;;;;;6187531;23;20028;-79
2023/08/05 06:59:46;;;;;;;5.47;2.80;;;17.00;99.90;;;;;;6159924;23;20453;-78
2023/08/05 07:02:11;;;;;;;9.80;2.92;;;16.90;99.90;;;;;;6160807;23;20017;-79
2023/08/05 07:04:37;;;;;;;6.32;2.83;;;16.90;99.90;;;;;;6160803;23;20071;-78
2023/08/05 07:07:03;;;;;;;5.47;2.90;;;17.00;99.90;;;;;;6160882;23;20021;-78
2023/08/05 07:09:28;;;;;;;5.93;2.70;;;17.10;99.90;;;;;;6160310;23;20092;-76
2023/08/05 07:11:54;;;;;;;5.18;2.53;;;17.30;99.90;;;;;;6160780;23;20503;-79
2023/08/05 07:14:20;;;;;;;4.00;2.35;;;17.20;99.90;;;;;;6160661;23;20009;-78
2023/08/05 07:16:46;;;;;;;5.28;2.30;;;17.20;99.90;;;;;;6160706;23;20023;-75
2023/08/05 07:19:11;;;;;;;4.82;2.30;;;17.30;99.90;;;;;;6160660;23;20024;-78
2023/08/05 07:21:37;;;;;;;5.00;2.40;;;17.40;99.90;;;;;;6160889;23;20346;-77
2023/08/05 07:24:03;;;;;;;6.07;2.45;;;17.50;99.90;;;;;;6187110;23;20441;-78
2023/08/05 07:26:28;;;;;;;4.72;2.38;;;17.40;99.90;;;;;;6160497;23;20028;-78
2023/08/05 07:28:54;;;;;;;5.10;2.40;;;17.40;99.90;;;;;;6160600;23;20009;-78
2023/08/05 07:31:20;;;;;;;5.78;2.55;;;17.40;99.90;;;;;;6186957;23;20032;-76
2023/08/05 07:33:46;;;;;;;6.40;2.55;;;17.30;99.90;;;;;;6187206;23;20024;-76
2023/08/05 07:36:22;;;;;;;7.03;2.80;;;17.30;99.90;;;;;;6160307;23;20021;-82
2023/08/05 07:38:48;;;;;;;7.22;2.72;;;17.30;99.90;;;;;;6160409;23;20091;-76
2023/08/05 07:41:15;;;;;;;5.97;2.22;;;17.20;99.90;;;;;;6160359;23;20021;-79
2023/08/05 07:43:42;;;;;;;5.78;2.30;;;17.20;99.90;;;;;;6160306;23;20021;-79
2023/08/05 07:46:11;;;;;;;6.05;2.92;;;17.30;99.90;;;;;;6160210;23;20021;-78
2023/08/05 07:48:39;;;;;;;4.30;2.25;;;17.40;99.90;;;;;;6160419;23;20047;-78
2023/08/05 07:51:06;;;;;;;4.05;2.05;;;17.30;99.90;;;;;;6160319;23;20015;-79
2023/08/05 07:53:35;;;;;;;4.20;2.13;;;17.40;99.90;;;;;;6160374;23;20043;-78
2023/08/05 07:56:12;;;;;;;4.95;2.33;;;17.40;99.90;;;;;;6160307;23;20021;-78
2023/08/05 07:58:46;;;;;;;5.65;2.35;;;17.30;99.90;;;;;;6160334;23;20017;-79
2023/08/05 08:01:22;;;;;;;5.22;2.30;;;17.50;99.90;;;;;;6159822;23;20068;-78
2023/08/05 08:03:53;;;;;;;3.83;1.80;;;17.50;99.90;;;;;;6187005;23;20079;-78
2023/08/05 08:06:19;;;;;;;4.22;1.90;;;17.40;99.90;;;;;;6160173;23;20453;-78
2023/08/05 08:08:46;;;;;;;5.88;3.17;;;17.50;99.90;;;;;;6159934;23;20377;-78
2023/08/05 08:11:15;;;;;;;4.28;2.30;;;17.60;99.90;;;;;;6159927;23;20108;-78
2023/08/05 08:13:41;;;;;;;3.85;2.25;;;17.50;99.90;;;;;;6186602;23;20013;-78
2023/08/05 08:16:07;;;;;;;5.10;2.55;;;17.40;99.90;;;;;;6186501;23;20025;-79
2023/08/05 08:18:35;;;;;;;5.60;2.67;;;17.50;99.90;;;;;;6160068;23;20060;-79
2023/08/05 08:21:01;;;;;;;5.65;2.25;;;17.50;99.90;;;;;;6160026;23;20067;-79
2023/08/05 08:23:30;;;;;;;5.38;2.50;;;17.60;99.90;;;;;;6160073;23;20056;-77
2023/08/05 08:25:58;;;;;;;6.53;2.30;;;17.70;99.90;;;;;;6186245;23;20017;-78
2023/08/05 08:28:25;;;;;;;3.63;2.20;;;17.70;99.90;;;;;;6159913;23;20021;-79
2023/08/05 08:30:54;;;;;;;8.00;2.35;;;17.80;99.90;;;;;;6186625;23;20020;-79
2023/08/05 08:33:21;;;;;;;4.78;2.10;;;17.80;99.90;;;;;;6186043;23;20055;-79
2023/08/05 08:35:48;;;;;;;4.90;2.53;;;17.80;99.90;;;;;;6160027;23;20021;-78
2023/08/05 08:38:15;;;;;;;5.45;2.20;;;17.90;99.90;;;;;;6160009;23;20060;-79
2023/08/05 08:40:48;;;;;;;6.97;2.90;;;18.00;99.90;;;;;;6159773;23;20068;-79
2023/08/05 08:43:18;;;;;;;4.13;2.25;;;17.80;99.90;;;;;;6159552;23;20100;-79
2023/08/05 08:45:46;;;;;;;3.75;2.15;;;17.80;99.90;;;;;;6159775;23;20020;-79
2023/08/05 08:48:12;;;;;;;4.97;2.75;;;17.80;99.90;;;;;;6159837;23;20120;-79
2023/08/05 08:50:40;;;;;;;5.93;2.42;;;17.90;99.90;;;;;;6159749;23;20013;-79
2023/08/05 08:53:08;;;;;;;7.30;2.30;;;17.90;99.90;;;;;;6159450;23;20021;-80
2023/08/05 08:55:35;;;;;;;4.95;2.10;;;17.90;99.90;;;;;;6186160;23;20071;-79
2023/08/05 08:58:04;;;;;;;5.47;2.35;;;18.10;99.90;;;;;;6159653;23;20051;-79
2023/08/05 09:00:31;;;;;;;6.07;2.17;;;18.30;99.90;;;;;;6159802;23;20453;-79
2023/08/05 09:03:03;;;;;;;4.22;2.03;;;18.30;99.90;;;;;;6186446;23;20017;-79
2023/08/05 09:05:41;;;;;;;3.95;1.80;;;18.30;99.90;;;;;;6159638;23;20021;-79
2023/08/05 09:08:09;;;;;;;4.70;2.08;;;18.40;99.90;;;;;;6159474;23;20021;-79
2023/08/05 09:10:36;;;;;;;3.85;2.08;;;18.40;99.90;;;;;;6159501;23;20021;-80
2023/08/05 09:13:02;;;;;;;3.85;2.13;;;18.60;99.90;;;;;;6159620;23;20020;-77
2023/08/05 09:15:40;;;;;;;4.55;2.65;;;18.80;99.90;;;;;;6185918;23;20074;-77
2023/08/05 09:18:07;;;;;;;6.57;2.17;;;19.00;99.90;;;;;;6159518;23;20148;-77
2023/08/05 09:20:37;;;;;;;4.10;1.85;;;19.20;99.90;;;;;;6186174;23;20098;-77
2023/08/05 09:23:06;;;;;;;7.72;2.17;;;19.30;99.90;;;;;;6159775;23;20525;-77
2023/08/05 09:25:32;;;;;;;4.88;2.40;;;19.30;99.90;;;;;;6159558;23;20017;-77
2023/08/05 09:28:01;;;;;;;3.20;1.67;;;19.50;99.90;;;;;;6159265;23;20523;-77
2023/08/05 09:30:27;;;;;;;3.90;1.90;;;19.50;99.90;;;;;;6159482;23;20017;-78
2023/08/05 09:32:53;;;;;;;3.55;1.80;;;19.70;99.90;;;;;;6159386;23;20397;-77
2023/08/05 09:35:20;;;;;;;4.57;2.03;;;19.80;99.90;;;;;;6159422;23;20017;-77
2023/08/05 09:37:51;;;;;;;3.95;1.83;;;20.00;99.90;;;;;;6186178;23;20071;-76
2023/08/05 09:40:29;;;;;;;2.72;1.50;;;20.00;99.90;;;;;;6159359;23;20021;-78
2023/08/05 09:42:59;;;;;;;3.78;1.88;;;20.00;99.90;;;;;;6159246;23;20019;-78
2023/08/05 09:45:28;;;;;;;4.80;2.13;;;20.00;99.90;;;;;;6159340;23;20027;-77
2023/08/05 09:48:03;;;;;;;3.58;1.90;;;19.90;99.90;;;;;;6185938;23;20013;-75
2023/08/05 09:50:36;;;;;;;4.82;1.90;;;19.70;99.90;;;;;;6159258;23;20087;-77
2023/08/05 09:53:08;;;;;;;2.45;1.48;;;19.80;99.90;;;;;;6159341;23;20021;-77
2023/08/05 09:55:38;;;;;;;2.90;1.80;;;19.70;99.90;;;;;;6159290;23;20048;-78
2023/08/05 09:58:07;;;;;;;4.53;1.70;;;19.80;99.90;;;;;;6159638;23;20101;-77
2023/08/05 10:00:35;;;;;;;4.55;1.73;;;19.80;99.90;;;;;;6185836;23;20009;-76
2023/08/05 10:03:04;;;;;;;2.92;1.70;;;19.70;99.90;;;;;;6159329;23;20021;-76
2023/08/05 10:05:30;;;;;;;4.93;2.53;;;19.70;99.90;;;;;;6159312;23;20020;-76
2023/08/05 10:07:58;;;;;;;4.13;1.65;;;19.70;99.90;;;;;;6159018;23;20027;-76
2023/08/05 10:10:24;;;;;;;3.63;1.60;;;19.70;99.90;;;;;;6159060;23;20021;-78
2023/08/05 10:13:09;;;;;;;3.08;1.63;;;19.90;99.90;;;;;;6159209;23;20052;-76
2023/08/05 10:15:41;;;;;;;4.30;1.83;;;20.00;99.90;;;;;;6158882;23;20434;-75
2023/08/05 10:18:10;;;;;;;3.58;1.92;;;19.90;99.90;;;;;;6159358;23;20021;-78
2023/08/05 10:20:39;;;;;;;3.63;1.77;;;19.90;99.90;;;;;;6159036;23;20084;-77
2023/08/05 10:23:10;;;;;;;3.17;1.70;;;19.70;99.90;;;;;;6186285;23;20021;-75
2023/08/05 10:25:43;;;;;;;;;;;19.60;99.90;;;;;;6188278;23;20028;-75
2023/08/05 10:28:10;;;;;;;3.38;1.95;;;19.50;99.90;;;;;;6185965;23;19990;-76
2023/08/05 10:30:43;;;;;;;3.20;1.83;;;19.50;99.90;;;;;;6161222;23;20024;-75
2023/08/05 10:33:09;;;;;;;3.40;1.55;;;19.40;99.90;;;;;;6160934;23;20017;-75
2023/08/05 10:35:42;;;;;;;15.55;3.45;;;19.50;99.90;;;;;;6161032;23;20028;-75
2023/08/05 10:38:24;;;;;;;7.68;2.22;;;19.50;99.90;;;;;;6161068;23;20017;-75
2023/08/05 10:41:00;;;;;;;2.88;1.63;;;19.50;99.90;;;;;;6187374;23;20029;-75
2023/08/05 10:43:35;;;;;;;3.38;1.75;;;19.60;99.90;;;;;;6187496;23;20044;-75
2023/08/05 10:46:06;;;;;;;4.45;1.90;;;19.90;99.90;;;;;;6160926;23;20014;-75
2023/08/05 10:48:45;;;;;;;2.85;1.50;;;20.00;99.90;;;;;;6160968;23;20017;-76
2023/08/05 10:51:13;;;;;;;3.20;1.80;;;20.20;99.90;;;;;;6160852;23;20025;-75
2023/08/05 10:53:42;;;;;;;5.78;2.00;;;20.20;99.90;;;;;;6160893;23;20048;-76
2023/08/05 10:56:11;;;;;;;3.28;1.88;;;20.30;99.90;;;;;;6160902;23;20017;-76
2023/08/05 10:58:47;;;;;;;3.28;1.90;;;20.40;99.90;;;;;;6160851;23;20099;-77
2023/08/05 11:01:13;;;;;;;4.72;1.90;;;20.30;99.90;;;;;;6160892;23;20024;-75
2023/08/05 11:03:46;;;;;;;4.07;2.03;;;20.20;99.90;;;;;;6187482;23;20025;-75
2023/08/05 11:06:13;;;;;;;2.80;1.80;;;20.30;99.90;;;;;;6187319;23;20013;-75
2023/08/05 11:08:42;;;;;;;3.90;1.73;;;20.40;99.90;;;;;;6187088;23;20021;-76
2023/08/05 11:11:15;;;;;;;4.07;2.00;;;20.40;99.90;;;;;;6160869;23;20029;-75
2023/08/05 11:13:45;;;;;;;5.10;2.35;;;20.20;99.90;;;;;;6160553;23;20352;-76
2023/08/05 11:16:16;;;;;;;3.00;1.98;;;20.20;99.90;;;;;;6160585;23;20096;-76
2023/08/05 11:18:54;;;;;;;3.30;1.92;;;20.20;99.90;;;;;;6186793;23;20017;-78
2023/08/05 11:21:23;;;;;;;3.03;1.98;;;20.30;99.90;;;;;;6160728;23;20024;-77
2023/08/05 11:23:49;;;;;;;3.58;2.00;;;20.40;99.90;;;;;;6160936;23;20044;-76
2023/08/05 11:26:20;;;;;;;3.95;2.05;;;20.40;99.90;;;;;;6160497;23;20017;-76
2023/08/05 11:28:46;;;;;;;4.82;1.85;;;20.40;99.90;;;;;;6187478;23;20017;-76
2023/08/05 11:31:25;;;;;;;2.80;1.50;;;20.40;99.90;;;;;;6160713;23;20017;-77
2023/08/05 11:33:52;;;;;;;2.65;1.55;;;20.20;99.90;;;;;;6160590;23;20021;-77
2023/08/05 11:36:26;;;;;;;3.63;1.77;;;20.10;99.90;;;;;;6160738;23;20345;-77
2023/08/05 11:38:51;;;;;;;2.78;1.70;;;20.40;99.90;;;;;;6160739;23;20025;-76
2023/08/05 11:41:17;;;;;;;5.07;2.40;;;20.20;99.90;;;;;;6160599;23;20342;-78
2023/08/05 11:43:43;;;;;;;4.75;1.90;;;20.20;99.90;;;;;;6160625;23;20041;-77
2023/08/05 11:46:26;;;;;;;4.40;1.88;;;20.30;99.90;;;;;;6160508;23;20248;-77
2023/08/05 11:49:09;;;;;;;4.47;1.80;;;20.40;99.90;;;;;;6187401;23;20087;-76
2023/08/05 11:51:51;;;;;;;3.13;1.73;;;20.40;99.90;;;;;;6187240;23;20155;-77
2023/08/05 11:54:28;;;;;;;4.72;1.98;;;20.50;99.90;;;;;;6160447;23;20013;-75
2023/08/05 11:56:54;;;;;;;3.78;2.00;;;20.40;99.90;;;;;;6160448;23;20445;-76
2023/08/05 11:59:43;;;;;;;5.07;2.10;;;20.10;99.90;;;;;;6160580;23;20021;-75
2023/08/05 12:02:09;;;;;;;5.15;2.13;;;20.10;99.90;;;;;;6160522;23;20021;-75
2023/08/05 12:04:55;;;;;;;4.15;2.00;;;20.00;99.90;;;;;;6160325;23;20056;-77
2023/08/05 12:07:21;;;;;;;4.32;1.83;;;19.90;99.90;;;;;;6187034;23;20048;-76
2023/08/05 12:10:07;;;;;;;3.35;1.85;;;19.70;99.90;;;;;;6160180;23;20013;-77
2023/08/05 12:12:33;;;;;;;3.13;1.92;;;19.80;99.90;;;;;;6160383;23;20032;-77
2023/08/05 12:15:26;;;;;;;5.43;2.03;;;19.90;99.90;;;;;;6160315;23;20545;-76
2023/08/05 12:17:56;;;;;;;5.10;1.92;;;19.90;99.90;;;;;;6186673;23;20017;-76
2023/08/05 12:20:24;;;;;;;3.70;2.00;;;19.80;99.90;;;;;;6160440;23;20021;-77
2023/08/05 12:22:51;;;;;;;4.60;2.40;;;19.80;99.90;;;;;;6186513;23;20345;-76
2023/08/05 12:25:17;;;;;;;5.88;2.50;;;19.90;99.90;;;;;;6160161;23;20017;-77
2023/08/05 12:27:49;;;;;;;5.25;2.28;;;19.80;99.90;;;;;;6160188;23;20028;-76
2023/08/05 12:30:15;;;;;;;4.57;2.05;;;19.90;99.90;;;;;;6160180;23;20024;-78
2023/08/05 12:32:41;;;;;;;4.88;2.20;;;19.70;99.90;;;;;;6160157;23;20490;-77
2023/08/05 12:35:09;;;;;;;4.05;2.22;;;19.80;99.90;;;;;;6160604;23;20017;-76
2023/08/05 12:37:36;;;;;;;6.13;2.50;;;19.70;99.90;;;;;;6160151;23;20025;-76
2023/08/05 12:40:08;;;;;;;4.47;2.20;;;19.80;99.90;;;;;;6160048;23;20017;-76
2023/08/05 12:42:34;;;;;;;4.35;2.28;;;19.70;99.90;;;;;;6160176;23;20071;-77
2023/08/05 12:45:03;;;;;;;5.50;2.22;;;19.50;99.90;;;;;;6160031;23;20024;-76
2023/08/05 12:47:33;;;;;;;6.25;2.58;;;19.50;99.90;;;;;;6159601;23;20021;-76
2023/08/05 12:50:00;;;;;;;3.88;2.42;;;19.60;99.90;;;;;;6186361;23;20071;-76